Oued Ziz — CNA3598 — position and weather

sailwx.info

Track history (hours):
 
Tides and Currents Weather Stations Pressure Air Temp Water Temp Dewpoint Dewpoint Depression Visibility Wind Speed Wind Dir Waves Ship Positions

Oued Ziz

Last reported at 2018-Aug-13 02:54 UTC. Time now 2018-Aug-14 19:29 UTC.
Position N 36°54' E 012°14'.

Length 115 m; draft 7 m.

Type: Ship (hazmat cat A). MMSI: 242006000.

Date/timePositionNaut miles runAvg speedWind from/ knotsBaromVisibWave heightAir tempDewpointWater temp
2018-Aug-13 02:54N 36°54' E 012°14'614.3
2018-Aug-13 02:30N 36°52' E 012°21'710.8
2018-Aug-13 01:54N 36°47' E 012°27'614.7
2018-Aug-13 01:30N 36°44' E 012°33'814.9
2018-Aug-13 01:00N 36°40' E 012°41'714.9
2018-Aug-13 00:30N 36°37' E 012°48'714.6
2018-Aug-13 00:00N 36°32' E 012°56'714.2
2018-Aug-12 23:30N 36°29' E 013°03'713.7
2018-Aug-12 23:00N 36°25' E 013°11'714.1
2018-Aug-12 22:30N 36°21' E 013°18'714.1
2018-Aug-12 22:00N 36°17' E 013°25'714.2
2018-Aug-12 21:30N 36°13' E 013°32'714.3
2018-Aug-12 21:00N 36°09' E 013°39'714.5
2018-Aug-12 20:31N 36°05' E 013°47'714.7
2018-Aug-12 20:01N 36°01' E 013°55'714.8
2018-Aug-12 19:30N 35°57' E 014°02'815.0
2018-Aug-12 19:00N 35°52' E 014°10'714.9
2018-Aug-12 18:30N 35°48' E 014°17'  
2018-Aug-09 21:15N 39°35' E 024°15'414.4
2018-Aug-09 20:57N 39°37' E 024°10'614.7
2018-Aug-09 20:30N 39°39' E 024°02'22 0.9
2018-Aug-08 18:44N 39°49' E 023°36'1410.3
2018-Aug-08 17:20N 39°47' E 023°55'515.1
2018-Aug-08 17:00N 39°46' E 024°01'714.8
2018-Aug-08 16:30N 39°45' E 024°11'2715.1
2018-Aug-08 14:41N 39°40' E 024°46'315.0
2018-Aug-08 14:28N 39°39' E 024°50'  
Track history (hours):
 
Tides and Currents Weather Stations Pressure Air Temp Water Temp Dewpoint Dewpoint Depression Visibility Wind Speed Wind Dir Waves Ship Positions

Oued Ziz

Last reported at 2018-Aug-13 02:54 UTC. Time now 2018-Aug-14 19:29 UTC.
Position N 36°54' E 012°14'.

Length 115 m; draft 7 m.

Type: Ship (hazmat cat A). MMSI: 242006000.

Date/timePositionNaut miles runAvg speedWind from/ knotsBaromVisibWave heightAir tempDewpointWater temp
2018-Aug-13 02:54N 36°54' E 012°14'614.3
2018-Aug-13 02:30N 36°52' E 012°21'710.8
2018-Aug-13 01:54N 36°47' E 012°27'614.7
2018-Aug-13 01:30N 36°44' E 012°33'814.9
2018-Aug-13 01:00N 36°40' E 012°41'714.9
2018-Aug-13 00:30N 36°37' E 012°48'714.6
2018-Aug-13 00:00N 36°32' E 012°56'714.2
2018-Aug-12 23:30N 36°29' E 013°03'713.7
2018-Aug-12 23:00N 36°25' E 013°11'714.1
2018-Aug-12 22:30N 36°21' E 013°18'714.1
2018-Aug-12 22:00N 36°17' E 013°25'714.2
2018-Aug-12 21:30N 36°13' E 013°32'714.3
2018-Aug-12 21:00N 36°09' E 013°39'714.5
2018-Aug-12 20:31N 36°05' E 013°47'714.7
2018-Aug-12 20:01N 36°01' E 013°55'714.8
2018-Aug-12 19:30N 35°57' E 014°02'815.0
2018-Aug-12 19:00N 35°52' E 014°10'714.9
2018-Aug-12 18:30N 35°48' E 014°17'  
2018-Aug-09 21:15N 39°35' E 024°15'414.4
2018-Aug-09 20:57N 39°37' E 024°10'614.7
2018-Aug-09 20:30N 39°39' E 024°02'22 0.9
2018-Aug-08 18:44N 39°49' E 023°36'1410.3
2018-Aug-08 17:20N 39°47' E 023°55'515.1
2018-Aug-08 17:00N 39°46' E 024°01'714.8
2018-Aug-08 16:30N 39°45' E 024°11'2715.1
2018-Aug-08 14:41N 39°40' E 024°46'315.0
2018-Aug-08 14:28N 39°39' E 024°50'  

Dump ship's entire track history